Eftichia — C6ZI4 — position and weather

sailwx.info

Track history (hours):
 
Tides and Currents Weather Stations Pressure Air Temp Water Temp Dewpoint Dewpoint Depression Visibility Wind Speed Wind Dir Waves Ship Positions

Eftichia

Last reported at 2015-Jan-24 14:33 UTC. Time now 2015-Jan-26 00:28 UTC.
Position N 39°08' W 009°51'.

Length 181 m; draft 7.1 m.

Type: Cargo ship. MMSI: 311056400.

Date/timePositionNaut miles runAvg speedWind from/ knotsBaromVisibWave heightAir tempDewpointWater temp
2015-Jan-24 14:33N 39°08' W 009°51'1212.1
2015-Jan-24 13:33N 38°56' W 009°52'1212.2
2015-Jan-24 12:33N 38°44' W 009°51'1211.9
2015-Jan-24 11:33N 38°33' W 009°46'1211.3
2015-Jan-24 10:28N 38°20' W 009°44'1111.7
2015-Jan-24 09:33N 38°10' W 009°41'1211.4
2015-Jan-24 08:33N 37°59' W 009°39'1211.5
2015-Jan-24 07:33N 37°47' W 009°35'1111.6
2015-Jan-24 06:33N 37°36' W 009°32'21411.7
2015-Jan-23 12:16N 35°58' W 005°35'811.0
2015-Jan-23 11:31N 36°00' W 005°25'9 9.4
2015-Jan-23 10:33N 36°02' W 005°14'21311.7
2015-Jan-22 16:26N 37°12' W 001°04'3 3.8
2015-Jan-22 15:33N 37°15' W 001°01'8 8.0
2015-Jan-22 14:33N 37°21' W 000°54'9 9.3
2015-Jan-22 13:33N 37°15' W 001°04'4 3.3
2015-Jan-22 12:16N 37°19' W 001°04'912.5
2015-Jan-22 11:33N 37°28' W 001°02'6 6.5
2015-Jan-22 10:33N 37°31' W 000°56'9 9.0
2015-Jan-22 09:34N 37°31' W 000°44'1311.0
2015-Jan-22 08:23N 37°38' W 000°30'1113.4
2015-Jan-22 07:33N 37°47' W 000°23'1413.1
2015-Jan-22 06:29N 38°00' W 000°16'93 7.8
2015-Jan-21 18:28N 39°33' W 000°06'8 0.3
2015-Jan-20 15:11N 39°39' W 000°13'3 3.9
2015-Jan-20 14:19N 39°37' W 000°10'7 7.3
2015-Jan-20 13:21N 39°36' W 000°01'5312.5
2015-Jan-20 09:08N 39°23' E 001°05'712.3
2015-Jan-20 08:32N 39°21' E 001°15'1212.4
2015-Jan-20 07:33N 39°18' E 001°30'1211.8
2015-Jan-20 06:33N 39°15' E 001°45'1211.8
2015-Jan-20 05:33N 39°12' E 001°60'1212.5
2015-Jan-20 04:33N 39°09' E 002°15'1413.5
2015-Jan-20 03:33N 39°06' E 002°32'1413.8
2015-Jan-20 02:33N 39°02' E 002°49'1313.2
2015-Jan-20 01:33N 38°59' E 003°06'1312.9
2015-Jan-20 00:33N 38°56' E 003°22'1312.9
2015-Jan-19 23:33N 38°53' E 003°38'1313.5
2015-Jan-19 22:33N 38°50' E 003°55'47413.2
2015-Jan-18 10:31N 36°37' E 013°31'1513.7
2015-Jan-18 09:24N 36°30' E 013°48'1213.9
2015-Jan-18 08:33N 36°25' E 014°01'1414.2
2015-Jan-18 07:33N 36°19' E 014°17'2913.4
2015-Jan-18 05:24N 36°07' E 014°50'1413.3
2015-Jan-18 04:20N 36°03' E 015°06'  
Track history (hours):
 
Tides and Currents Weather Stations Pressure Air Temp Water Temp Dewpoint Dewpoint Depression Visibility Wind Speed Wind Dir Waves Ship Positions

Eftichia

Last reported at 2015-Jan-24 14:33 UTC. Time now 2015-Jan-26 00:28 UTC.
Position N 39°08' W 009°51'.

Length 181 m; draft 7.1 m.

Type: Cargo ship. MMSI: 311056400.

Date/timePositionNaut miles runAvg speedWind from/ knotsBaromVisibWave heightAir tempDewpointWater temp
2015-Jan-24 14:33N 39°08' W 009°51'1212.1
2015-Jan-24 13:33N 38°56' W 009°52'1212.2
2015-Jan-24 12:33N 38°44' W 009°51'1211.9
2015-Jan-24 11:33N 38°33' W 009°46'1211.3
2015-Jan-24 10:28N 38°20' W 009°44'1111.7
2015-Jan-24 09:33N 38°10' W 009°41'1211.4
2015-Jan-24 08:33N 37°59' W 009°39'1211.5
2015-Jan-24 07:33N 37°47' W 009°35'1111.6
2015-Jan-24 06:33N 37°36' W 009°32'21411.7
2015-Jan-23 12:16N 35°58' W 005°35'811.0
2015-Jan-23 11:31N 36°00' W 005°25'9 9.4
2015-Jan-23 10:33N 36°02' W 005°14'21311.7
2015-Jan-22 16:26N 37°12' W 001°04'3 3.8
2015-Jan-22 15:33N 37°15' W 001°01'8 8.0
2015-Jan-22 14:33N 37°21' W 000°54'9 9.3
2015-Jan-22 13:33N 37°15' W 001°04'4 3.3
2015-Jan-22 12:16N 37°19' W 001°04'912.5
2015-Jan-22 11:33N 37°28' W 001°02'6 6.5
2015-Jan-22 10:33N 37°31' W 000°56'9 9.0
2015-Jan-22 09:34N 37°31' W 000°44'1311.0
2015-Jan-22 08:23N 37°38' W 000°30'1113.4
2015-Jan-22 07:33N 37°47' W 000°23'1413.1
2015-Jan-22 06:29N 38°00' W 000°16'93 7.8
2015-Jan-21 18:28N 39°33' W 000°06'8 0.3
2015-Jan-20 15:11N 39°39' W 000°13'3 3.9
2015-Jan-20 14:19N 39°37' W 000°10'7 7.3
2015-Jan-20 13:21N 39°36' W 000°01'5312.5
2015-Jan-20 09:08N 39°23' E 001°05'712.3
2015-Jan-20 08:32N 39°21' E 001°15'1212.4
2015-Jan-20 07:33N 39°18' E 001°30'1211.8
2015-Jan-20 06:33N 39°15' E 001°45'1211.8
2015-Jan-20 05:33N 39°12' E 001°60'1212.5
2015-Jan-20 04:33N 39°09' E 002°15'1413.5
2015-Jan-20 03:33N 39°06' E 002°32'1413.8
2015-Jan-20 02:33N 39°02' E 002°49'1313.2
2015-Jan-20 01:33N 38°59' E 003°06'1312.9
2015-Jan-20 00:33N 38°56' E 003°22'1312.9
2015-Jan-19 23:33N 38°53' E 003°38'1313.5
2015-Jan-19 22:33N 38°50' E 003°55'47413.2
2015-Jan-18 10:31N 36°37' E 013°31'1513.7
2015-Jan-18 09:24N 36°30' E 013°48'1213.9
2015-Jan-18 08:33N 36°25' E 014°01'1414.2
2015-Jan-18 07:33N 36°19' E 014°17'2913.4
2015-Jan-18 05:24N 36°07' E 014°50'1413.3
2015-Jan-18 04:20N 36°03' E 015°06'  

Dump ship's entire track history